createdAt,value
2022-08-17T00:00:42.861Z,100.00
2022-08-17T00:03:02.752Z,100.00
2022-08-17T00:05:32.511Z,100.00
2022-08-17T00:08:00.568Z,100.00
2022-08-17T00:10:28.284Z,100.00
2022-08-17T00:12:57.657Z,100.00
2022-08-17T00:15:26.755Z,100.00
2022-08-17T00:17:54.518Z,100.00
2022-08-17T00:20:23.392Z,100.00
2022-08-17T00:23:09.501Z,100.00
2022-08-17T00:25:37.363Z,100.00
2022-08-17T00:28:06.102Z,100.00
2022-08-17T00:30:51.025Z,100.00
2022-08-17T00:33:21.646Z,100.00
2022-08-17T00:35:50.618Z,100.00
2022-08-17T00:38:18.805Z,100.00
2022-08-17T00:40:49.496Z,100.00
2022-08-17T00:43:23.402Z,100.00
2022-08-17T00:45:53.229Z,100.00
2022-08-17T00:48:29.060Z,100.00
2022-08-17T00:51:02.630Z,100.00
2022-08-17T00:53:32.590Z,100.00
2022-08-17T00:56:02.662Z,100.00
2022-08-17T00:58:36.638Z,100.00
2022-08-17T01:01:07.790Z,100.00
2022-08-17T01:03:38.021Z,100.00
2022-08-17T01:06:09.044Z,100.00
2022-08-17T01:08:39.985Z,100.00
2022-08-17T01:11:08.984Z,100.00
2022-08-17T01:13:41.149Z,100.00
2022-08-17T01:16:16.927Z,100.00
2022-08-17T01:18:46.460Z,100.00
2022-08-17T01:21:27.872Z,100.00
2022-08-17T01:23:57.551Z,100.00
2022-08-17T01:26:25.315Z,100.00
2022-08-17T01:28:55.999Z,100.00
2022-08-17T01:31:28.950Z,100.00
2022-08-17T01:33:58.232Z,100.00
2022-08-17T01:36:25.998Z,100.00
2022-08-17T01:38:53.709Z,100.00
2022-08-17T01:41:23.789Z,100.00
2022-08-17T01:43:55.777Z,100.00
2022-08-17T01:46:25.044Z,100.00
2022-08-17T01:48:52.765Z,100.00
2022-08-17T01:51:21.237Z,100.00
2022-08-17T01:53:52.857Z,100.00
2022-08-17T01:56:24.209Z,100.00
2022-08-17T01:58:52.404Z,100.00
2022-08-17T02:01:26.475Z,100.00
2022-08-17T02:04:00.866Z,100.00
2022-08-17T02:06:31.649Z,100.00
2022-08-17T02:09:16.923Z,100.00
2022-08-17T02:11:46.866Z,100.00
2022-08-17T02:14:15.297Z,100.00
2022-08-17T02:16:43.491Z,100.00
2022-08-17T02:19:13.698Z,100.00
2022-08-17T02:21:44.461Z,100.00
2022-08-17T02:24:16.611Z,100.00
2022-08-17T02:26:44.604Z,100.00
2022-08-17T02:29:14.546Z,100.00
2022-08-17T02:31:42.527Z,100.00
2022-08-17T02:34:10.391Z,100.00
2022-08-17T02:36:38.132Z,100.00
2022-08-17T02:39:08.410Z,100.00
2022-08-17T02:41:36.555Z,100.00
2022-08-17T02:44:05.861Z,100.00
2022-08-17T02:46:35.446Z,100.00
2022-08-17T02:49:03.416Z,100.00
2022-08-17T02:51:31.236Z,100.00
2022-08-17T02:54:38.865Z,100.00
2022-08-17T02:56:46.944Z,100.00
2022-08-17T02:59:16.792Z,100.00
2022-08-17T03:01:45.878Z,100.00
2022-08-17T03:04:13.655Z,100.00
2022-08-17T03:06:41.350Z,100.00
2022-08-17T03:09:09.748Z,100.00
2022-08-17T03:11:37.694Z,100.00
2022-08-17T03:14:05.421Z,100.00
2022-08-17T03:16:33.165Z,100.00
2022-08-17T03:19:03.790Z,100.00
2022-08-17T03:21:31.559Z,100.00
2022-08-17T03:23:59.276Z,100.00
2022-08-17T03:26:29.751Z,100.00
2022-08-17T03:28:57.616Z,100.00
2022-08-17T03:31:25.349Z,100.00
2022-08-17T03:33:53.049Z,100.00
2022-08-17T03:36:22.267Z,100.00
2022-08-17T03:38:50.010Z,100.00
2022-08-17T03:41:18.899Z,100.00
2022-08-17T03:43:46.591Z,100.00
2022-08-17T03:46:35.273Z,100.00
2022-08-17T03:49:22.237Z,100.00
2022-08-17T03:52:09.412Z,100.00
2022-08-17T03:54:54.652Z,100.00
2022-08-17T03:57:22.507Z,100.00
2022-08-17T03:59:50.657Z,100.00
2022-08-17T04:02:22.448Z,100.00
2022-08-17T04:04:52.282Z,100.00
2022-08-17T04:07:23.035Z,100.00
2022-08-17T04:09:50.774Z,100.00
2022-08-17T04:12:20.520Z,100.00
2022-08-17T04:14:52.890Z,100.00
2022-08-17T04:17:24.555Z,100.00
2022-08-17T04:19:52.500Z,100.00
2022-08-17T04:22:33.265Z,100.00
2022-08-17T04:25:10.257Z,100.00
2022-08-17T04:27:38.144Z,100.00
2022-08-17T04:30:07.988Z,100.00
2022-08-17T04:33:04.149Z,100.00
2022-08-17T04:35:36.747Z,100.00
2022-08-17T04:38:06.128Z,100.00
2022-08-17T04:40:51.857Z,100.00
2022-08-17T04:43:21.533Z,100.00
2022-08-17T04:45:56.143Z,100.00
2022-08-17T04:48:29.662Z,100.00
2022-08-17T04:51:06.912Z,100.00
2022-08-17T04:53:36.223Z,100.00
2022-08-17T04:56:04.568Z,100.00
2022-08-17T04:58:32.329Z,100.00
2022-08-17T05:01:00.150Z,100.00
2022-08-17T05:03:29.135Z,100.00
2022-08-17T05:05:56.901Z,100.00
2022-08-17T05:08:24.642Z,100.00
2022-08-17T05:10:53.829Z,100.00
2022-08-17T05:13:23.709Z,100.00
2022-08-17T05:15:55.338Z,100.00
2022-08-17T05:18:24.557Z,100.00
2022-08-17T05:20:53.099Z,100.00
2022-08-17T05:23:22.450Z,100.00
2022-08-17T05:25:55.631Z,100.00
2022-08-17T05:28:27.627Z,100.00
2022-08-17T05:31:00.259Z,100.00
2022-08-17T05:33:30.801Z,100.00
2022-08-17T05:36:00.390Z,100.00
2022-08-17T05:38:29.588Z,100.00
2022-08-17T05:40:59.885Z,100.00
2022-08-17T05:43:30.144Z,100.00
2022-08-17T05:46:04.587Z,100.00
2022-08-17T05:48:39.945Z,100.00
2022-08-17T05:51:32.900Z,100.00
2022-08-17T05:54:16.605Z,100.00
2022-08-17T05:57:03.359Z,100.00
2022-08-17T05:59:42.625Z,100.00
2022-08-17T06:02:22.405Z,100.00
2022-08-17T06:05:06.755Z,100.00
2022-08-17T06:07:46.865Z,100.00
2022-08-17T06:10:25.134Z,100.00
2022-08-17T06:13:04.490Z,100.00
2022-08-17T06:15:37.541Z,100.00
2022-08-17T06:18:08.787Z,100.00
2022-08-17T06:20:44.034Z,100.00
2022-08-17T06:23:26.811Z,100.00
2022-08-17T06:26:02.073Z,100.00
2022-08-17T06:28:38.912Z,100.00
2022-08-17T06:31:12.426Z,100.00
2022-08-17T06:33:46.325Z,100.00
2022-08-17T06:36:29.292Z,100.00
2022-08-17T06:39:04.907Z,100.00
2022-08-17T06:41:42.976Z,99.16
2022-08-17T06:44:42.258Z,93.07
2022-08-17T06:47:12.470Z,89.87
2022-08-17T06:49:55.189Z,86.09
2022-08-17T06:52:42.303Z,86.31
2022-08-17T06:55:21.260Z,84.04
2022-08-17T06:57:53.521Z,79.09
2022-08-17T07:00:26.008Z,80.44
2022-08-17T07:02:58.829Z,85.43
2022-08-17T07:05:31.994Z,86.77
2022-08-17T07:08:04.090Z,85.32
2022-08-17T07:10:44.119Z,85.26
2022-08-17T07:13:29.324Z,87.99
2022-08-17T07:16:08.634Z,83.83
2022-08-17T07:18:36.360Z,75.28
2022-08-17T07:21:19.139Z,74.68
2022-08-17T07:24:07.889Z,67.73
2022-08-17T07:26:35.612Z,70.50
2022-08-17T07:29:03.528Z,66.81
2022-08-17T07:31:33.498Z,72.89
2022-08-17T07:34:06.799Z,70.07
2022-08-17T07:36:35.098Z,73.35
2022-08-17T07:39:04.912Z,72.89
2022-08-17T07:41:53.053Z,73.37
2022-08-17T07:44:25.734Z,68.25
2022-08-17T07:47:13.082Z,65.60
2022-08-17T07:49:44.183Z,64.75
2022-08-17T07:52:50.895Z,64.41
2022-08-17T07:55:29.545Z,63.23
2022-08-17T07:57:59.280Z,63.38
2022-08-17T08:00:32.466Z,57.75
2022-08-17T08:03:21.732Z,62.47
2022-08-17T08:05:54.931Z,56.76
2022-08-17T08:08:28.168Z,57.86
2022-08-17T08:11:04.651Z,59.20
2022-08-17T08:13:33.269Z,56.47
2022-08-17T08:16:22.567Z,54.12
2022-08-17T08:18:56.840Z,54.93
2022-08-17T08:21:38.854Z,53.08
2022-08-17T08:24:24.513Z,53.72
2022-08-17T08:27:09.116Z,51.04
2022-08-17T08:29:45.117Z,50.52
2022-08-17T08:32:20.893Z,50.20
2022-08-17T08:35:02.721Z,51.05
2022-08-17T08:37:43.263Z,49.54
2022-08-17T08:40:21.428Z,49.48
2022-08-17T08:42:57.478Z,50.14
2022-08-17T08:45:30.525Z,51.76
2022-08-17T08:48:22.898Z,50.58
2022-08-17T08:51:14.594Z,50.95
2022-08-17T08:53:49.578Z,51.28
2022-08-17T08:56:35.382Z,49.48
2022-08-17T08:59:13.779Z,46.93
2022-08-17T09:01:53.185Z,45.89
2022-08-17T09:05:02.745Z,46.23
2022-08-17T09:07:30.296Z,44.71
2022-08-17T09:10:07.668Z,45.93
2022-08-17T09:12:42.643Z,45.61
2022-08-17T09:15:17.718Z,44.66
2022-08-17T09:18:03.675Z,45.28
2022-08-17T09:20:50.060Z,45.98
2022-08-17T09:23:32.438Z,42.65
2022-08-17T09:26:04.377Z,44.06
2022-08-17T09:28:36.407Z,43.04
2022-08-17T09:31:09.783Z,44.03
2022-08-17T09:33:43.439Z,41.61
2022-08-17T09:36:16.805Z,42.53
2022-08-17T09:38:55.275Z,41.10
2022-08-17T09:41:29.224Z,40.88
2022-08-17T09:44:10.768Z,40.41
2022-08-17T09:46:56.012Z,40.37
2022-08-17T09:49:30.882Z,40.83
2022-08-17T09:52:03.379Z,39.21
2022-08-17T09:54:39.054Z,39.70
2022-08-17T09:57:31.817Z,41.35
2022-08-17T10:00:17.052Z,40.35
2022-08-17T10:03:18.024Z,39.53
2022-08-17T10:05:56.646Z,39.37
2022-08-17T10:08:32.492Z,37.97
2022-08-17T10:11:14.823Z,36.74
2022-08-17T10:13:53.055Z,36.62
2022-08-17T10:16:30.100Z,38.16
2022-08-17T10:19:09.863Z,38.87
2022-08-17T10:22:00.606Z,37.24
2022-08-17T10:25:22.988Z,35.25
2022-08-17T10:27:48.709Z,36.64
2022-08-17T10:30:19.694Z,35.83
2022-08-17T10:32:52.338Z,33.99
2022-08-17T10:35:33.970Z,34.03
2022-08-17T10:38:24.637Z,33.34
2022-08-17T10:40:58.621Z,33.86
2022-08-17T10:43:41.744Z,34.32
2022-08-17T10:46:30.987Z,33.96
2022-08-17T10:49:23.412Z,32.06
2022-08-17T10:51:54.356Z,30.86
2022-08-17T10:54:45.642Z,32.63
2022-08-17T10:57:32.378Z,32.60
2022-08-17T11:00:02.218Z,31.59
2022-08-17T11:02:31.802Z,32.29
2022-08-17T11:05:09.714Z,31.30
2022-08-17T11:07:58.480Z,31.39
2022-08-17T11:11:05.920Z,33.33
2022-08-17T11:13:46.012Z,31.28
2022-08-17T11:16:47.861Z,31.33
2022-08-17T11:19:41.852Z,31.01
2022-08-17T11:23:00.347Z,31.79
2022-08-17T11:25:38.387Z,30.80
2022-08-17T11:28:09.578Z,31.87
2022-08-17T11:30:50.477Z,31.85
2022-08-17T11:33:55.848Z,34.52
2022-08-17T11:36:57.044Z,34.57
2022-08-17T11:39:40.803Z,35.46
2022-08-17T11:42:21.442Z,34.39
2022-08-17T11:44:56.213Z,32.49
2022-08-17T11:48:08.919Z,33.06
2022-08-17T11:51:04.912Z,31.40
2022-08-17T11:54:21.480Z,30.45
2022-08-17T11:56:48.906Z,31.23
2022-08-17T11:59:54.645Z,31.94
2022-08-17T12:02:47.841Z,33.06
2022-08-17T12:05:36.027Z,30.67
2022-08-17T12:08:15.349Z,29.64
2022-08-17T12:10:55.252Z,30.71
2022-08-17T12:13:30.603Z,28.97
2022-08-17T12:16:09.875Z,29.25
2022-08-17T12:18:39.532Z,30.84
2022-08-17T12:21:22.832Z,29.33
2022-08-17T12:23:57.758Z,31.30
2022-08-17T12:26:30.219Z,29.95
2022-08-17T12:29:02.020Z,30.77
2022-08-17T12:31:35.405Z,33.14
2022-08-17T12:34:04.124Z,31.46
2022-08-17T12:36:33.420Z,32.80
2022-08-17T12:39:12.835Z,32.24
2022-08-17T12:41:45.133Z,30.93
2022-08-17T12:44:18.482Z,28.17
2022-08-17T12:46:53.395Z,29.43
2022-08-17T12:49:25.217Z,31.49
2022-08-17T12:51:57.861Z,30.79
2022-08-17T12:54:33.591Z,31.78
2022-08-17T12:57:08.805Z,29.41
2022-08-17T12:59:42.365Z,30.51
2022-08-17T13:02:21.461Z,29.84
2022-08-17T13:04:50.323Z,30.21
2022-08-17T13:07:30.445Z,31.58
2022-08-17T13:09:59.687Z,29.47
2022-08-17T13:12:30.074Z,32.19
2022-08-17T13:14:58.470Z,30.86
2022-08-17T13:17:29.077Z,30.99
2022-08-17T13:19:57.221Z,30.00
2022-08-17T13:22:26.608Z,32.69
2022-08-17T13:24:57.383Z,31.55
2022-08-17T13:27:29.388Z,31.94
2022-08-17T13:29:59.581Z,33.71
2022-08-17T13:32:43.636Z,34.90
2022-08-17T13:35:40.340Z,33.67
2022-08-17T13:38:11.752Z,34.60
2022-08-17T13:40:44.393Z,34.24
2022-08-17T13:43:13.629Z,34.98
2022-08-17T13:45:51.768Z,35.07
2022-08-17T13:48:28.793Z,35.29
2022-08-17T13:51:14.569Z,35.43
2022-08-17T13:54:09.067Z,34.33
2022-08-17T13:56:51.965Z,34.62
2022-08-17T13:59:36.284Z,36.35
2022-08-17T14:02:20.732Z,35.18
2022-08-17T14:04:50.068Z,36.07
2022-08-17T14:07:35.204Z,37.55
2022-08-17T14:10:08.862Z,36.60
2022-08-17T14:12:39.695Z,36.62
2022-08-17T14:15:10.372Z,36.62
2022-08-17T14:17:39.274Z,37.39
2022-08-17T14:20:10.386Z,36.94
2022-08-17T14:22:40.083Z,36.52
2022-08-17T14:25:10.714Z,38.13
2022-08-17T14:27:47.104Z,36.74
2022-08-17T14:30:24.366Z,35.69
2022-08-17T14:32:52.741Z,36.91
2022-08-17T14:35:23.070Z,37.55
2022-08-17T14:37:51.389Z,38.02
2022-08-17T14:40:22.630Z,37.69
2022-08-17T14:42:51.999Z,37.86
2022-08-17T14:45:31.640Z,37.87
2022-08-17T14:48:03.974Z,38.49
2022-08-17T14:50:32.082Z,38.76
2022-08-17T14:53:04.404Z,38.14
2022-08-17T14:55:32.418Z,38.20
2022-08-17T14:58:00.142Z,38.75
2022-08-17T15:00:28.592Z,40.04
2022-08-17T15:02:59.991Z,39.71
2022-08-17T15:05:34.707Z,39.67
2022-08-17T15:08:03.650Z,39.86
2022-08-17T15:10:32.402Z,40.54
2022-08-17T15:13:00.209Z,40.79
2022-08-17T15:15:28.571Z,41.02
2022-08-17T15:17:57.207Z,40.71
2022-08-17T15:20:28.995Z,41.12
2022-08-17T15:22:59.211Z,41.95
2022-08-17T15:25:28.845Z,41.94
2022-08-17T15:27:56.656Z,41.64
2022-08-17T15:30:25.704Z,41.29
2022-08-17T15:32:55.490Z,41.68
2022-08-17T15:35:27.558Z,42.42
2022-08-17T15:37:57.940Z,42.49
2022-08-17T15:40:26.068Z,42.43
2022-08-17T15:42:54.033Z,42.13
2022-08-17T15:45:26.351Z,42.11
2022-08-17T15:47:54.127Z,41.84
2022-08-17T15:50:21.915Z,41.88
2022-08-17T15:52:55.704Z,41.82
2022-08-17T15:55:25.813Z,42.11
2022-08-17T15:57:53.677Z,42.19
2022-08-17T16:00:24.038Z,42.05
2022-08-17T16:03:45.261Z,42.01
2022-08-17T16:05:40.880Z,42.18
2022-08-17T16:08:08.871Z,41.86
2022-08-17T16:10:38.503Z,42.78
2022-08-17T16:13:06.249Z,43.20
2022-08-17T16:15:51.060Z,43.51
2022-08-17T16:18:25.536Z,44.26
2022-08-17T16:20:53.301Z,42.94
2022-08-17T16:23:21.039Z,43.26
2022-08-17T16:25:53.641Z,44.07
2022-08-17T16:28:21.831Z,43.86
2022-08-17T16:30:49.674Z,43.66
2022-08-17T16:33:17.802Z,44.77
2022-08-17T16:35:45.526Z,45.32
2022-08-17T16:38:13.220Z,45.18
2022-08-17T16:40:42.315Z,44.26
2022-08-17T16:43:11.956Z,45.34
2022-08-17T16:45:40.659Z,44.36
2022-08-17T16:48:09.243Z,45.00
2022-08-17T16:50:37.943Z,45.04
2022-08-17T16:53:07.793Z,44.75
2022-08-17T16:55:36.498Z,45.04
2022-08-17T16:58:04.528Z,44.71
2022-08-17T17:00:34.391Z,45.06
2022-08-17T17:03:19.897Z,45.28
2022-08-17T17:05:59.776Z,46.05
2022-08-17T17:08:31.742Z,46.80
2022-08-17T17:11:04.012Z,47.40
2022-08-17T17:13:41.982Z,46.41
2022-08-17T17:16:32.254Z,47.51
2022-08-17T17:19:09.255Z,46.86
2022-08-17T17:21:45.119Z,46.81
2022-08-17T17:24:17.246Z,47.61
2022-08-17T17:27:08.587Z,48.35
2022-08-17T17:29:49.996Z,47.93
2022-08-17T17:32:26.667Z,48.60
2022-08-17T17:35:02.439Z,49.42
2022-08-17T17:37:34.987Z,50.58
2022-08-17T17:40:07.372Z,51.16
2022-08-17T17:42:35.764Z,52.34
2022-08-17T17:45:13.147Z,53.05
2022-08-17T17:47:42.346Z,53.51
2022-08-17T17:50:10.578Z,53.72
2022-08-17T17:52:47.568Z,53.74
2022-08-17T17:55:27.086Z,54.08
2022-08-17T17:58:04.572Z,53.81
2022-08-17T18:00:39.457Z,53.94
2022-08-17T18:03:50.573Z,55.12
2022-08-17T18:06:31.510Z,54.45
2022-08-17T18:09:18.030Z,53.58
2022-08-17T18:12:22.621Z,53.20
2022-08-17T18:15:11.280Z,53.54
2022-08-17T18:17:39.101Z,53.98
2022-08-17T18:20:08.661Z,54.50
2022-08-17T18:22:36.557Z,54.87
2022-08-17T18:25:40.067Z,55.67
2022-08-17T18:28:09.987Z,56.12
2022-08-17T18:30:37.701Z,55.02
2022-08-17T18:33:23.038Z,56.60
2022-08-17T18:35:58.556Z,55.17
2022-08-17T18:38:30.987Z,54.92
2022-08-17T18:41:05.627Z,55.48
2022-08-17T18:43:43.959Z,55.30
2022-08-17T18:46:28.837Z,55.37
2022-08-17T18:48:59.953Z,55.67
2022-08-17T18:51:41.016Z,56.55
2022-08-17T18:54:22.464Z,56.50
2022-08-17T18:56:53.275Z,57.34
2022-08-17T18:59:28.765Z,58.46
2022-08-17T19:02:24.250Z,58.72
2022-08-17T19:05:10.572Z,55.91
2022-08-17T19:07:42.699Z,55.80
2022-08-17T19:10:19.218Z,55.70
2022-08-17T19:12:50.131Z,57.02
2022-08-17T19:15:22.291Z,58.16
2022-08-17T19:17:56.611Z,58.21
2022-08-17T19:20:30.413Z,59.37
2022-08-17T19:23:16.777Z,59.79
2022-08-17T19:25:49.591Z,60.58
2022-08-17T19:28:24.010Z,60.95
2022-08-17T19:30:56.609Z,61.77
2022-08-17T19:33:24.546Z,61.72
2022-08-17T19:36:02.263Z,62.73
2022-08-17T19:38:41.371Z,62.94
2022-08-17T19:41:17.826Z,64.25
2022-08-17T19:44:15.245Z,67.17
2022-08-17T19:46:55.954Z,71.93
2022-08-17T19:49:40.968Z,75.15
2022-08-17T19:52:24.130Z,78.88
2022-08-17T19:55:01.977Z,80.81
2022-08-17T19:57:40.519Z,86.47
2022-08-17T20:00:12.050Z,100.00
2022-08-17T20:02:49.073Z,100.00
2022-08-17T20:05:24.754Z,100.00
2022-08-17T20:07:56.341Z,100.00
2022-08-17T20:10:35.298Z,100.00
2022-08-17T20:13:08.686Z,100.00
2022-08-17T20:15:40.180Z,100.00
2022-08-17T20:18:17.260Z,100.00
2022-08-17T20:20:54.858Z,100.00
2022-08-17T20:23:45.971Z,100.00
2022-08-17T20:26:21.542Z,100.00
2022-08-17T20:29:09.984Z,100.00
2022-08-17T20:31:47.267Z,100.00
2022-08-17T20:34:38.109Z,100.00
2022-08-17T20:37:09.361Z,100.00
2022-08-17T20:39:40.609Z,100.00
2022-08-17T20:42:31.503Z,100.00
2022-08-17T20:45:04.729Z,100.00
2022-08-17T20:47:35.383Z,100.00
2022-08-17T20:50:06.915Z,100.00
2022-08-17T20:52:52.866Z,100.00
2022-08-17T20:55:55.693Z,100.00
2022-08-17T20:58:48.272Z,100.00
2022-08-17T21:01:20.154Z,100.00
2022-08-17T21:03:52.154Z,100.00
2022-08-17T21:06:24.356Z,100.00
2022-08-17T21:08:57.899Z,100.00
2022-08-17T21:12:04.303Z,100.00
2022-08-17T21:14:52.106Z,100.00
2022-08-17T21:17:38.078Z,100.00
2022-08-17T21:20:15.559Z,100.00
2022-08-17T21:23:05.218Z,100.00
2022-08-17T21:25:51.209Z,100.00
2022-08-17T21:28:33.711Z,100.00
2022-08-17T21:31:08.966Z,100.00
2022-08-17T21:33:39.107Z,100.00
2022-08-17T21:36:25.043Z,100.00
2022-08-17T21:38:59.396Z,100.00
2022-08-17T21:41:31.938Z,100.00
2022-08-17T21:44:06.171Z,100.00
2022-08-17T21:46:42.821Z,100.00
2022-08-17T21:49:19.466Z,100.00
2022-08-17T21:51:50.299Z,100.00
2022-08-17T21:54:31.704Z,100.00
2022-08-17T21:57:02.193Z,100.00
2022-08-17T21:59:33.215Z,100.00
2022-08-17T22:02:04.039Z,100.00
2022-08-17T22:04:33.899Z,100.00
2022-08-17T22:07:03.262Z,100.00
2022-08-17T22:09:33.822Z,100.00
2022-08-17T22:12:07.391Z,100.00
2022-08-17T22:14:51.682Z,100.00
2022-08-17T22:17:25.350Z,100.00
2022-08-17T22:19:56.321Z,100.00
2022-08-17T22:22:32.542Z,100.00
2022-08-17T22:25:02.953Z,100.00
2022-08-17T22:27:54.319Z,100.00
2022-08-17T22:30:34.856Z,100.00
2022-08-17T22:33:32.303Z,100.00
2022-08-17T22:36:11.198Z,100.00
2022-08-17T22:38:39.207Z,100.00
2022-08-17T22:41:23.438Z,100.00
2022-08-17T22:43:52.159Z,100.00
2022-08-17T22:46:22.121Z,100.00
2022-08-17T22:48:54.839Z,100.00
2022-08-17T22:51:24.742Z,100.00
2022-08-17T22:54:13.018Z,100.00
2022-08-17T22:57:07.328Z,100.00
2022-08-17T22:59:44.683Z,100.00
2022-08-17T23:02:25.145Z,100.00
2022-08-17T23:04:59.240Z,100.00
2022-08-17T23:07:26.945Z,100.00
2022-08-17T23:09:55.347Z,100.00
2022-08-17T23:12:27.383Z,100.00
2022-08-17T23:15:01.566Z,100.00
2022-08-17T23:17:32.849Z,100.00
2022-08-17T23:20:08.327Z,100.00
2022-08-17T23:22:38.153Z,100.00
2022-08-17T23:25:29.252Z,100.00
2022-08-17T23:28:01.575Z,100.00
2022-08-17T23:30:31.148Z,100.00
2022-08-17T23:33:01.063Z,100.00
2022-08-17T23:35:39.651Z,100.00
2022-08-17T23:38:09.300Z,100.00
2022-08-17T23:40:37.734Z,100.00
2022-08-17T23:43:23.479Z,100.00
2022-08-17T23:45:54.463Z,100.00
2022-08-17T23:48:28.658Z,100.00
2022-08-17T23:51:09.775Z,100.00
2022-08-17T23:53:40.179Z,100.00
2022-08-17T23:56:11.187Z,100.00
2022-08-17T23:58:42.992Z,100.00
